sensor_id;sensor_type;location;lat;lon;timestamp;pressure;altitude;pressure_sealevel;temperature;humidity
69848;BME280;57143;55.940;37.496;2023-12-20T00:00:37;97801.06;;;2.92;100.00
69848;BME280;57143;55.940;37.496;2023-12-20T00:03:04;97799.59;;;2.96;100.00
69848;BME280;57143;55.940;37.496;2023-12-20T00:05:31;97818.72;;;3.00;100.00
69848;BME280;57143;55.940;37.496;2023-12-20T00:07:59;97810.31;;;2.96;100.00
69848;BME280;57143;55.940;37.496;2023-12-20T00:10:26;97812.78;;;2.98;100.00
69848;BME280;57143;55.940;37.496;2023-12-20T00:12:53;97781.50;;;2.92;100.00
69848;BME280;57143;55.940;37.496;2023-12-20T00:15:21;97823.97;;;3.13;100.00
69848;BME280;57143;55.940;37.496;2023-12-20T00:17:49;97828.09;;;3.15;100.00
69848;BME280;57143;55.940;37.496;2023-12-20T00:20:17;97806.75;;;3.02;100.00
69848;BME280;57143;55.940;37.496;2023-12-20T00:22:44;97810.31;;;2.96;100.00
69848;BME280;57143;55.940;37.496;2023-12-20T00:25:12;97807.47;;;2.91;100.00
69848;BME280;57143;55.940;37.496;2023-12-20T00:27:39;97824.88;;;3.00;100.00
69848;BME280;57143;55.940;37.496;2023-12-20T00:30:07;97806.38;;;2.99;100.00
69848;BME280;57143;55.940;37.496;2023-12-20T00:32:35;97835.69;;;3.18;100.00
69848;BME280;57143;55.940;37.496;2023-12-20T00:35:04;97796.09;;;2.96;100.00
69848;BME280;57143;55.940;37.496;2023-12-20T00:37:32;97787.91;;;2.91;100.00
69848;BME280;57143;55.940;37.496;2023-12-20T00:39:59;97835.69;;;3.18;100.00
69848;BME280;57143;55.940;37.496;2023-12-20T00:42:26;97832.75;;;3.26;100.00
69848;BME280;57143;55.940;37.496;2023-12-20T00:44:54;97834.63;;;3.19;100.00
69848;BME280;57143;55.940;37.496;2023-12-20T00:47:21;97810.25;;;3.03;100.00
69848;BME280;57143;55.940;37.496;2023-12-20T00:49:49;97843.28;;;3.21;100.00
69848;BME280;57143;55.940;37.496;2023-12-20T00:52:17;97824.38;;;3.16;100.00
69848;BME280;57143;55.940;37.496;2023-12-20T00:54:45;97812.94;;;3.03;100.00
69848;BME280;57143;55.940;37.496;2023-12-20T00:57:13;97842.66;;;3.19;100.00
69848;BME280;57143;55.940;37.496;2023-12-20T00:59:40;97846.41;;;3.18;100.00
69848;BME280;57143;55.940;37.496;2023-12-20T01:02:07;97840.81;;;3.20;100.00
69848;BME280;57143;55.940;37.496;2023-12-20T01:04:35;97832.63;;;3.15;100.00
69848;BME280;57143;55.940;37.496;2023-12-20T01:07:03;97828.72;;;3.11;100.00
69848;BME280;57143;55.940;37.496;2023-12-20T01:09:31;97824.69;;;3.02;100.00
69848;BME280;57143;55.940;37.496;2023-12-20T01:11:59;97812.16;;;2.96;100.00
69848;BME280;57143;55.940;37.496;2023-12-20T01:14:26;97829.88;;;2.97;100.00
69848;BME280;57143;55.940;37.496;2023-12-20T01:16:54;97830.28;;;2.94;100.00
69848;BME280;57143;55.940;37.496;2023-12-20T01:19:21;97818.56;;;2.88;100.00
69848;BME280;57143;55.940;37.496;2023-12-20T01:21:49;97817.13;;;2.92;100.00
69848;BME280;57143;55.940;37.496;2023-12-20T01:24:17;97790.28;;;2.74;100.00
69848;BME280;57143;55.940;37.496;2023-12-20T01:26:46;97799.84;;;2.88;100.00
69848;BME280;57143;55.940;37.496;2023-12-20T01:29:13;97797.38;;;2.87;100.00
69848;BME280;57143;55.940;37.496;2023-12-20T01:31:41;97779.59;;;2.68;100.00
69848;BME280;57143;55.940;37.496;2023-12-20T01:34:09;97778.41;;;2.64;100.00
69848;BME280;57143;55.940;37.496;2023-12-20T01:36:36;97801.19;;;2.73;100.00
69848;BME280;57143;55.940;37.496;2023-12-20T01:39:03;97794.59;;;2.75;100.00
69848;BME280;57143;55.940;37.496;2023-12-20T01:41:31;97812.47;;;2.81;100.00
69848;BME280;57143;55.940;37.496;2023-12-20T01:44:00;97805.47;;;2.80;100.00
69848;BME280;57143;55.940;37.496;2023-12-20T01:46:27;97806.50;;;2.79;100.00
69848;BME280;57143;55.940;37.496;2023-12-20T01:48:54;97801.56;;;2.76;100.00
69848;BME280;57143;55.940;37.496;2023-12-20T01:51:22;97764.44;;;2.62;100.00
69848;BME280;57143;55.940;37.496;2023-12-20T01:53:50;97777.50;;;2.76;100.00
69848;BME280;57143;55.940;37.496;2023-12-20T01:56:17;97741.25;;;2.49;100.00
69848;BME280;57143;55.940;37.496;2023-12-20T01:58:46;97777.72;;;2.75;100.00
69848;BME280;57143;55.940;37.496;2023-12-20T02:01:16;97781.72;;;2.90;100.00
69848;BME280;57143;55.940;37.496;2023-12-20T02:03:45;97749.16;;;2.69;100.00
69848;BME280;57143;55.940;37.496;2023-12-20T02:06:13;97775.16;;;2.93;100.00
69848;BME280;57143;55.940;37.496;2023-12-20T02:08:40;97776.72;;;3.00;100.00
69848;BME280;57143;55.940;37.496;2023-12-20T02:11:07;97736.91;;;2.86;100.00
69848;BME280;57143;55.940;37.496;2023-12-20T02:13:35;97759.25;;;2.98;100.00
69848;BME280;57143;55.940;37.496;2023-12-20T02:16:02;97739.41;;;2.81;100.00
69848;BME280;57143;55.940;37.496;2023-12-20T02:18:31;97768.13;;;2.98;100.00
69848;BME280;57143;55.940;37.496;2023-12-20T02:20:59;97760.72;;;2.94;100.00
69848;BME280;57143;55.940;37.496;2023-12-20T02:23:27;97767.34;;;2.91;100.00
69848;BME280;57143;55.940;37.496;2023-12-20T02:25:55;97739.03;;;2.77;100.00
69848;BME280;57143;55.940;37.496;2023-12-20T02:28:22;97764.69;;;2.85;100.00
69848;BME280;57143;55.940;37.496;2023-12-20T02:30:50;97752.22;;;2.72;100.00
69848;BME280;57143;55.940;37.496;2023-12-20T02:33:17;97727.22;;;2.60;100.00
69848;BME280;57143;55.940;37.496;2023-12-20T02:35:44;97752.84;;;2.74;100.00
69848;BME280;57143;55.940;37.496;2023-12-20T02:38:12;97768.78;;;2.87;100.00
69848;BME280;57143;55.940;37.496;2023-12-20T02:40:40;97763.06;;;2.84;100.00
69848;BME280;57143;55.940;37.496;2023-12-20T02:43:08;97740.69;;;2.72;100.00
69848;BME280;57143;55.940;37.496;2023-12-20T02:45:35;97764.44;;;2.93;100.00
69848;BME280;57143;55.940;37.496;2023-12-20T02:48:03;97765.44;;;2.98;100.00
69848;BME280;57143;55.940;37.496;2023-12-20T02:50:30;97776.09;;;3.05;100.00
69848;BME280;57143;55.940;37.496;2023-12-20T02:52:58;97787.63;;;3.05;100.00
69848;BME280;57143;55.940;37.496;2023-12-20T02:55:25;97694.94;;;2.55;100.00
69848;BME280;57143;55.940;37.496;2023-12-20T02:57:53;97747.94;;;2.96;100.00
69848;BME280;57143;55.940;37.496;2023-12-20T03:00:20;97767.00;;;3.06;100.00
69848;BME280;57143;55.940;37.496;2023-12-20T03:02:47;97753.84;;;3.04;100.00
69848;BME280;57143;55.940;37.496;2023-12-20T03:05:15;97758.59;;;3.02;100.00
69848;BME280;57143;55.940;37.496;2023-12-20T03:07:42;97740.97;;;2.95;100.00
69848;BME280;57143;55.940;37.496;2023-12-20T03:10:09;97689.94;;;2.65;100.00
69848;BME280;57143;55.940;37.496;2023-12-20T03:12:36;97758.94;;;3.12;100.00
69848;BME280;57143;55.940;37.496;2023-12-20T03:15:06;97765.94;;;3.13;100.00
69848;BME280;57143;55.940;37.496;2023-12-20T03:17:33;97760.63;;;3.07;100.00
69848;BME280;57143;55.940;37.496;2023-12-20T03:20:01;97766.78;;;3.07;100.00
69848;BME280;57143;55.940;37.496;2023-12-20T03:22:30;97751.50;;;2.90;100.00
69848;BME280;57143;55.940;37.496;2023-12-20T03:24:57;97772.97;;;3.08;100.00
69848;BME280;57143;55.940;37.496;2023-12-20T03:27:24;97731.34;;;2.87;100.00
69848;BME280;57143;55.940;37.496;2023-12-20T03:29:52;97744.28;;;2.90;100.00
69848;BME280;57143;55.940;37.496;2023-12-20T03:32:21;97737.13;;;2.84;100.00
69848;BME280;57143;55.940;37.496;2023-12-20T03:34:48;97693.22;;;2.67;100.00
69848;BME280;57143;55.940;37.496;2023-12-20T03:37:15;97743.38;;;3.03;100.00
69848;BME280;57143;55.940;37.496;2023-12-20T03:39:42;97768.06;;;3.05;100.00
69848;BME280;57143;55.940;37.496;2023-12-20T03:42:10;97764.34;;;3.06;100.00
69848;BME280;57143;55.940;37.496;2023-12-20T03:44:39;97768.66;;;3.07;100.00
69848;BME280;57143;55.940;37.496;2023-12-20T03:47:06;97754.06;;;3.03;100.00
69848;BME280;57143;55.940;37.496;2023-12-20T03:49:35;97753.03;;;3.04;100.00
69848;BME280;57143;55.940;37.496;2023-12-20T03:52:04;97761.28;;;3.02;100.00
69848;BME280;57143;55.940;37.496;2023-12-20T03:54:32;97758.38;;;3.04;100.00
69848;BME280;57143;55.940;37.496;2023-12-20T03:57:00;97769.06;;;3.04;100.00
69848;BME280;57143;55.940;37.496;2023-12-20T03:59:27;97748.78;;;2.96;100.00
69848;BME280;57143;55.940;37.496;2023-12-20T04:01:54;97750.84;;;2.94;100.00
69848;BME280;57143;55.940;37.496;2023-12-20T04:04:22;97766.00;;;3.00;100.00
69848;BME280;57143;55.940;37.496;2023-12-20T04:06:51;97766.22;;;3.05;100.00
69848;BME280;57143;55.940;37.496;2023-12-20T04:09:18;97765.38;;;3.05;100.00
69848;BME280;57143;55.940;37.496;2023-12-20T04:11:45;97762.72;;;3.05;100.00
69848;BME280;57143;55.940;37.496;2023-12-20T04:14:12;97763.72;;;3.04;100.00
69848;BME280;57143;55.940;37.496;2023-12-20T04:16:40;97759.38;;;3.09;100.00
69848;BME280;57143;55.940;37.496;2023-12-20T04:19:08;97756.84;;;3.14;100.00
69848;BME280;57143;55.940;37.496;2023-12-20T04:21:35;97749.28;;;3.11;100.00
69848;BME280;57143;55.940;37.496;2023-12-20T04:24:05;97747.94;;;2.96;100.00
69848;BME280;57143;55.940;37.496;2023-12-20T04:26:32;97764.72;;;3.09;100.00
69848;BME280;57143;55.940;37.496;2023-12-20T04:28:59;97765.59;;;3.03;100.00
69848;BME280;57143;55.940;37.496;2023-12-20T04:31:27;97763.34;;;3.00;100.00
69848;BME280;57143;55.940;37.496;2023-12-20T04:33:54;97772.38;;;3.06;100.00
69848;BME280;57143;55.940;37.496;2023-12-20T04:36:21;97775.25;;;3.04;100.00
69848;BME280;57143;55.940;37.496;2023-12-20T04:38:50;97771.38;;;3.00;100.00
69848;BME280;57143;55.940;37.496;2023-12-20T04:41:19;97767.84;;;3.06;100.00
69848;BME280;57143;55.940;37.496;2023-12-20T04:43:46;97779.38;;;3.07;100.00
69848;BME280;57143;55.940;37.496;2023-12-20T04:46:14;97760.31;;;2.90;100.00
69848;BME280;57143;55.940;37.496;2023-12-20T04:48:41;97766.50;;;2.91;100.00
69848;BME280;57143;55.940;37.496;2023-12-20T04:51:08;97777.00;;;2.92;100.00
69848;BME280;57143;55.940;37.496;2023-12-20T04:53:35;97739.25;;;2.76;100.00
69848;BME280;57143;55.940;37.496;2023-12-20T04:56:03;97788.91;;;2.96;100.00
69848;BME280;57143;55.940;37.496;2023-12-20T04:58:32;97778.84;;;2.92;100.00
69848;BME280;57143;55.940;37.496;2023-12-20T05:01:00;97774.69;;;2.96;100.00
69848;BME280;57143;55.940;37.496;2023-12-20T05:03:27;97777.53;;;3.01;100.00
69848;BME280;57143;55.940;37.496;2023-12-20T05:05:55;97764.44;;;2.93;100.00
69848;BME280;57143;55.940;37.496;2023-12-20T05:08:22;97776.91;;;3.05;100.00
69848;BME280;57143;55.940;37.496;2023-12-20T05:10:50;97784.97;;;2.99;100.00
69848;BME280;57143;55.940;37.496;2023-12-20T05:13:18;97780.72;;;2.91;100.00
69848;BME280;57143;55.940;37.496;2023-12-20T05:15:47;97788.13;;;2.89;100.00
69848;BME280;57143;55.940;37.496;2023-12-20T05:18:14;97780.78;;;2.78;100.00
69848;BME280;57143;55.940;37.496;2023-12-20T05:20:41;97770.75;;;2.74;100.00
69848;BME280;57143;55.940;37.496;2023-12-20T05:23:09;97799.28;;;2.86;100.00
69848;BME280;57143;55.940;37.496;2023-12-20T05:25:37;97798.00;;;2.89;100.00
69848;BME280;57143;55.940;37.496;2023-12-20T05:28:05;97798.22;;;2.87;100.00
69848;BME280;57143;55.940;37.496;2023-12-20T05:30:32;97804.81;;;2.85;100.00
69848;BME280;57143;55.940;37.496;2023-12-20T05:33:01;97799.06;;;2.88;100.00
69848;BME280;57143;55.940;37.496;2023-12-20T05:35:28;97812.00;;;2.91;100.00
69848;BME280;57143;55.940;37.496;2023-12-20T05:37:56;97814.22;;;2.94;100.00
69848;BME280;57143;55.940;37.496;2023-12-20T05:40:23;97807.63;;;2.96;100.00
69848;BME280;57143;55.940;37.496;2023-12-20T05:42:50;97813.59;;;2.98;100.00
69848;BME280;57143;55.940;37.496;2023-12-20T05:45:17;97818.72;;;3.00;100.00
69848;BME280;57143;55.940;37.496;2023-12-20T05:47:45;97819.97;;;2.97;100.00
69848;BME280;57143;55.940;37.496;2023-12-20T05:50:14;97802.91;;;2.98;100.00
69848;BME280;57143;55.940;37.496;2023-12-20T05:52:42;97795.09;;;2.90;100.00
69848;BME280;57143;55.940;37.496;2023-12-20T05:55:09;97798.56;;;2.97;100.00
69848;BME280;57143;55.940;37.496;2023-12-20T05:57:36;97801.84;;;2.99;100.00
69848;BME280;57143;55.940;37.496;2023-12-20T06:00:04;97779.88;;;2.91;100.00
69848;BME280;57143;55.940;37.496;2023-12-20T06:02:32;97805.19;;;2.95;100.00
69848;BME280;57143;55.940;37.496;2023-12-20T06:04:59;97800.06;;;2.93;100.00
69848;BME280;57143;55.940;37.496;2023-12-20T06:07:30;97800.47;;;2.90;100.00
69848;BME280;57143;55.940;37.496;2023-12-20T06:09:58;97800.69;;;2.89;100.00
69848;BME280;57143;55.940;37.496;2023-12-20T06:12:25;97786.56;;;2.75;100.00
69848;BME280;57143;55.940;37.496;2023-12-20T06:14:53;97791.25;;;2.80;100.00
69848;BME280;57143;55.940;37.496;2023-12-20T06:17:20;97794.09;;;2.85;100.00
69848;BME280;57143;55.940;37.496;2023-12-20T06:19:48;97798.22;;;2.87;100.00
69848;BME280;57143;55.940;37.496;2023-12-20T06:22:15;97807.81;;;3.01;100.00
69848;BME280;57143;55.940;37.496;2023-12-20T06:24:44;97808.19;;;3.05;100.00
69848;BME280;57143;55.940;37.496;2023-12-20T06:27:11;97809.03;;;3.05;100.00
69848;BME280;57143;55.940;37.496;2023-12-20T06:29:38;97821.75;;;3.10;100.00
69848;BME280;57143;55.940;37.496;2023-12-20T06:32:07;97781.34;;;2.87;100.00
69848;BME280;57143;55.940;37.496;2023-12-20T06:34:35;97819.84;;;3.17;100.00
69848;BME280;57143;55.940;37.496;2023-12-20T06:37:04;97819.41;;;3.20;100.00
69848;BME280;57143;55.940;37.496;2023-12-20T06:39:32;97814.28;;;3.18;100.00
69848;BME280;57143;55.940;37.496;2023-12-20T06:42:01;97814.06;;;3.20;100.00
69848;BME280;57143;55.940;37.496;2023-12-20T06:44:28;97811.75;;;3.23;100.00
69848;BME280;57143;55.940;37.496;2023-12-20T06:46:55;97792.09;;;3.11;100.00
69848;BME280;57143;55.940;37.496;2023-12-20T06:49:23;97784.34;;;3.03;100.00
69848;BME280;57143;55.940;37.496;2023-12-20T06:51:50;97786.41;;;3.01;100.00
69848;BME280;57143;55.940;37.496;2023-12-20T06:54:18;97820.25;;;3.20;100.00
69848;BME280;57143;55.940;37.496;2023-12-20T06:56:46;97808.25;;;3.23;100.00
69848;BME280;57143;55.940;37.496;2023-12-20T06:59:14;97814.22;;;3.25;100.00
69848;BME280;57143;55.940;37.496;2023-12-20T07:01:42;97805.19;;;3.19;100.00
69848;BME280;57143;55.940;37.496;2023-12-20T07:04:09;97828.16;;;3.33;100.00
69848;BME280;57143;55.940;37.496;2023-12-20T07:06:37;97819.75;;;3.30;100.00
69848;BME280;57143;55.940;37.496;2023-12-20T07:09:04;97827.56;;;3.31;100.00
69848;BME280;57143;55.940;37.496;2023-12-20T07:11:32;97826.91;;;3.36;100.00
69848;BME280;57143;55.940;37.496;2023-12-20T07:13:59;97822.59;;;3.35;100.00
69848;BME280;57143;55.940;37.496;2023-12-20T07:16:28;97825.06;;;3.36;100.00
69848;BME280;57143;55.940;37.496;2023-12-20T07:18:55;97816.03;;;3.31;100.00
69848;BME280;57143;55.940;37.496;2023-12-20T07:21:23;97810.53;;;3.26;100.00
69848;BME280;57143;55.940;37.496;2023-12-20T07:23:51;97826.25;;;3.40;100.00
69848;BME280;57143;55.940;37.496;2023-12-20T07:26:18;97824.78;;;3.44;100.00
69848;BME280;57143;55.940;37.496;2023-12-20T07:28:45;97780.34;;;3.12;100.00
69848;BME280;57143;55.940;37.496;2023-12-20T07:31:12;97827.84;;;3.48;100.00
69848;BME280;57143;55.940;37.496;2023-12-20T07:33:43;97829.25;;;3.50;100.00
69848;BME280;57143;55.940;37.496;2023-12-20T07:36:12;97829.94;;;3.46;100.00
69848;BME280;57143;55.940;37.496;2023-12-20T07:38:39;97823.13;;;3.43;100.00
69848;BME280;57143;55.940;37.496;2023-12-20T07:41:09;97842.00;;;3.55;100.00
69848;BME280;57143;55.940;37.496;2023-12-20T07:43:36;97820.44;;;3.43;100.00
69848;BME280;57143;55.940;37.496;2023-12-20T07:46:05;97844.03;;;3.60;100.00
69848;BME280;57143;55.940;37.496;2023-12-20T07:48:32;97841.50;;;3.65;100.00
69848;BME280;57143;55.940;37.496;2023-12-20T07:51:00;97828.78;;;3.60;100.00
69848;BME280;57143;55.940;37.496;2023-12-20T07:53:27;97861.91;;;3.66;100.00
69848;BME280;57143;55.940;37.496;2023-12-20T07:55:55;97842.88;;;3.74;100.00
69848;BME280;57143;55.940;37.496;2023-12-20T07:58:22;97841.50;;;3.65;100.00
69848;BME280;57143;55.940;37.496;2023-12-20T08:00:50;97849.69;;;3.70;100.00
69848;BME280;57143;55.940;37.496;2023-12-20T08:03:17;97864.09;;;3.75;100.00
69848;BME280;57143;55.940;37.496;2023-12-20T08:05:44;97863.63;;;3.78;100.00
69848;BME280;57143;55.940;37.496;2023-12-20T08:08:13;97865.94;;;3.75;100.00
69848;BME280;57143;55.940;37.496;2023-12-20T08:10:40;97872.94;;;3.76;100.00
69848;BME280;57143;55.940;37.496;2023-12-20T08:13:08;97873.94;;;3.81;100.00
69848;BME280;57143;55.940;37.496;2023-12-20T08:15:35;97823.50;;;3.53;100.00
69848;BME280;57143;55.940;37.496;2023-12-20T08:18:04;97857.97;;;3.68;100.00
69848;BME280;57143;55.940;37.496;2023-12-20T08:20:31;97876.03;;;3.79;100.00
69848;BME280;57143;55.940;37.496;2023-12-20T08:22:59;97874.19;;;3.73;100.00
69848;BME280;57143;55.940;37.496;2023-12-20T08:25:27;97788.72;;;3.22;100.00
69848;BME280;57143;55.940;37.496;2023-12-20T08:28:01;97867.22;;;3.72;100.00
69848;BME280;57143;55.940;37.496;2023-12-20T08:30:29;97875.84;;;3.74;100.00
69848;BME280;57143;55.940;37.496;2023-12-20T08:32:57;97880.31;;;3.80;100.00
69848;BME280;57143;55.940;37.496;2023-12-20T08:35:26;97869.16;;;3.83;100.00
69848;BME280;57143;55.940;37.496;2023-12-20T08:37:54;97796.09;;;3.51;100.00
69848;BME280;57143;55.940;37.496;2023-12-20T08:40:21;97746.16;;;3.14;100.00
69848;BME280;57143;55.940;37.496;2023-12-20T08:42:50;97852.22;;;3.89;100.00
69848;BME280;57143;55.940;37.496;2023-12-20T08:45:18;97818.69;;;3.62;100.00
69848;BME280;57143;55.940;37.496;2023-12-20T08:47:45;97830.03;;;3.82;100.00
69848;BME280;57143;55.940;37.496;2023-12-20T08:50:13;97793.13;;;3.60;100.00
69848;BME280;57143;55.940;37.496;2023-12-20T08:52:41;97853.19;;;3.95;100.00
69848;BME280;57143;55.940;37.496;2023-12-20T08:55:09;97863.09;;;3.94;100.00
69848;BME280;57143;55.940;37.496;2023-12-20T08:57:36;97831.72;;;3.77;100.00
69848;BME280;57143;55.940;37.496;2023-12-20T09:00:07;97841.44;;;3.96;100.00
69848;BME280;57143;55.940;37.496;2023-12-20T09:02:34;97836.28;;;3.94;100.00
69848;BME280;57143;55.940;37.496;2023-12-20T09:05:04;97845.28;;;3.82;100.00
69848;BME280;57143;55.940;37.496;2023-12-20T09:07:31;97829.34;;;3.87;100.00
69848;BME280;57143;55.940;37.496;2023-12-20T09:09:59;97827.00;;;3.97;100.00
69848;BME280;57143;55.940;37.496;2023-12-20T09:12:26;97835.34;;;4.07;100.00
69848;BME280;57143;55.940;37.496;2023-12-20T09:14:54;97842.34;;;4.08;100.00
69848;BME280;57143;55.940;37.496;2023-12-20T09:17:23;97827.53;;;4.05;100.00
69848;BME280;57143;55.940;37.496;2023-12-20T09:19:50;97840.41;;;4.15;100.00
69848;BME280;57143;55.940;37.496;2023-12-20T09:22:19;97839.53;;;4.21;100.00
69848;BME280;57143;55.940;37.496;2023-12-20T09:24:47;97833.13;;;4.22;100.00
69848;BME280;57143;55.940;37.496;2023-12-20T09:27:14;97815.53;;;4.08;100.00
69848;BME280;57143;55.940;37.496;2023-12-20T09:29:42;97813.31;;;4.05;100.00
69848;BME280;57143;55.940;37.496;2023-12-20T09:32:09;97803.03;;;4.02;100.00
69848;BME280;57143;55.940;37.496;2023-12-20T09:34:38;97827.25;;;4.13;100.00
69848;BME280;57143;55.940;37.496;2023-12-20T09:37:05;97820.91;;;4.08;100.00
69848;BME280;57143;55.940;37.496;2023-12-20T09:39:33;97810.03;;;3.85;100.00
69848;BME280;57143;55.940;37.496;2023-12-20T09:42:02;97786.25;;;3.70;100.00
69848;BME280;57143;55.940;37.496;2023-12-20T09:44:30;97800.41;;;3.77;100.00
69848;BME280;57143;55.940;37.496;2023-12-20T09:46:58;97824.03;;;4.05;100.00
69848;BME280;57143;55.940;37.496;2023-12-20T09:49:29;97791.25;;;3.85;100.00
69848;BME280;57143;55.940;37.496;2023-12-20T09:52:00;97812.25;;;4.06;100.00
69848;BME280;57143;55.940;37.496;2023-12-20T09:54:28;97749.50;;;3.77;100.00
69848;BME280;57143;55.940;37.496;2023-12-20T09:56:56;97777.03;;;3.84;100.00
69848;BME280;57143;55.940;37.496;2023-12-20T09:59:23;97816.75;;;4.12;100.00
69848;BME280;57143;55.940;37.496;2023-12-20T10:01:55;97786.22;;;3.95;100.00
69848;BME280;57143;55.940;37.496;2023-12-20T10:04:22;97805.03;;;4.06;100.00
69848;BME280;57143;55.940;37.496;2023-12-20T10:06:51;97799.06;;;4.04;100.00
69848;BME280;57143;55.940;37.496;2023-12-20T10:09:20;97802.34;;;4.06;100.00
69848;BME280;57143;55.940;37.496;2023-12-20T10:11:47;97783.53;;;3.95;100.00
69848;BME280;57143;55.940;37.496;2023-12-20T10:14:16;97809.66;;;3.99;100.00
69848;BME280;57143;55.940;37.496;2023-12-20T10:16:44;97808.69;;;4.12;100.00
69848;BME280;57143;55.940;37.496;2023-12-20T10:19:11;97813.31;;;4.05;100.00
69848;BME280;57143;55.940;37.496;2023-12-20T10:21:39;97794.88;;;3.90;100.00
69848;BME280;57143;55.940;37.496;2023-12-20T10:24:09;97828.28;;;4.12;100.00
69848;BME280;57143;55.940;37.496;2023-12-20T10:26:38;97815.00;;;3.99;100.00
69848;BME280;57143;55.940;37.496;2023-12-20T10:29:05;97820.28;;;4.06;100.00
69848;BME280;57143;55.940;37.496;2023-12-20T10:31:33;97824.56;;;4.13;100.00
69848;BME280;57143;55.940;37.496;2023-12-20T10:34:02;97791.94;;;3.98;100.00
69848;BME280;57143;55.940;37.496;2023-12-20T10:36:31;97817.84;;;4.04;100.00
69848;BME280;57143;55.940;37.496;2023-12-20T10:38:59;97764.28;;;3.80;100.00
69848;BME280;57143;55.940;37.496;2023-12-20T10:41:28;97810.41;;;4.06;100.00
69848;BME280;57143;55.940;37.496;2023-12-20T10:43:59;97769.38;;;3.88;100.00
69848;BME280;57143;55.940;37.496;2023-12-20T10:46:28;97811.16;;;4.13;100.00
69848;BME280;57143;55.940;37.496;2023-12-20T10:48:55;97809.22;;;4.20;100.00
69848;BME280;57143;55.940;37.496;2023-12-20T10:51:24;97798.19;;;4.10;100.00
69848;BME280;57143;55.940;37.496;2023-12-20T10:53:53;97794.69;;;4.10;100.00
69848;BME280;57143;55.940;37.496;2023-12-20T10:56:20;97804.97;;;4.13;100.00
69848;BME280;57143;55.940;37.496;2023-12-20T10:58:49;97802.56;;;4.23;100.00
69848;BME280;57143;55.940;37.496;2023-12-20T11:01:19;97782.75;;;4.06;100.00
69848;BME280;57143;55.940;37.496;2023-12-20T11:03:50;97800.81;;;4.17;100.00
69848;BME280;57143;55.940;37.496;2023-12-20T11:06:27;97681.22;;;3.43;100.00
69848;BME280;57143;55.940;37.496;2023-12-20T11:09:04;97799.44;;;4.08;100.00
69848;BME280;57143;55.940;37.496;2023-12-20T11:11:49;97778.41;;;3.93;100.00
69848;BME280;57143;55.940;37.496;2023-12-20T11:14:23;97804.44;;;4.04;100.00
69848;BME280;57143;55.940;37.496;2023-12-20T11:17:07;97791.19;;;3.91;100.00
69848;BME280;57143;55.940;37.496;2023-12-20T11:19:36;97805.94;;;4.00;100.00
69848;BME280;57143;55.940;37.496;2023-12-20T11:22:04;97765.25;;;3.85;100.00
69848;BME280;57143;55.940;37.496;2023-12-20T11:24:33;97790.59;;;3.89;100.00
69848;BME280;57143;55.940;37.496;2023-12-20T11:27:04;97803.69;;;3.97;100.00
69848;BME280;57143;55.940;37.496;2023-12-20T11:29:32;97814.78;;;4.01;100.00
69848;BME280;57143;55.940;37.496;2023-12-20T11:32:02;97778.03;;;3.90;100.00
69848;BME280;57143;55.940;37.496;2023-12-20T11:34:33;97803.78;;;4.09;100.00
69848;BME280;57143;55.940;37.496;2023-12-20T11:37:03;97794.47;;;4.11;100.00
69848;BME280;57143;55.940;37.496;2023-12-20T11:39:31;97811.59;;;4.10;100.00
69848;BME280;57143;55.940;37.496;2023-12-20T11:42:04;97787.22;;;3.94;100.00
69848;BME280;57143;55.940;37.496;2023-12-20T11:44:33;97804.38;;;3.93;100.00
69848;BME280;57143;55.940;37.496;2023-12-20T11:47:00;97785.91;;;3.85;100.00
69848;BME280;57143;55.940;37.496;2023-12-20T11:49:28;97821.13;;;4.06;100.00
69848;BME280;57143;55.940;37.496;2023-12-20T11:51:58;97823.44;;;4.03;100.00
69848;BME280;57143;55.940;37.496;2023-12-20T11:54:26;97807.66;;;3.95;100.00
69848;BME280;57143;55.940;37.496;2023-12-20T11:56:53;97816.66;;;4.00;100.00
69848;BME280;57143;55.940;37.496;2023-12-20T11:59:20;97820.53;;;4.04;100.00
69848;BME280;57143;55.940;37.496;2023-12-20T12:01:48;97822.44;;;3.97;100.00
69848;BME280;57143;55.940;37.496;2023-12-20T12:04:17;97822.66;;;3.96;100.00
69848;BME280;57143;55.940;37.496;2023-12-20T12:06:44;97781.63;;;3.77;100.00
69848;BME280;57143;55.940;37.496;2023-12-20T12:09:14;97819.53;;;3.99;100.00
69848;BME280;57143;55.940;37.496;2023-12-20T12:11:42;97822.03;;;4.00;100.00
69848;BME280;57143;55.940;37.496;2023-12-20T12:14:10;97820.59;;;3.98;100.00
69848;BME280;57143;55.940;37.496;2023-12-20T12:16:37;97819.91;;;4.02;100.00
69848;BME280;57143;55.940;37.496;2023-12-20T12:19:05;97820.59;;;3.98;100.00
69848;BME280;57143;55.940;37.496;2023-12-20T12:21:32;97824.91;;;3.99;100.00
69848;BME280;57143;55.940;37.496;2023-12-20T12:24:09;97816.81;;;4.05;100.00
69848;BME280;57143;55.940;37.496;2023-12-20T12:26:38;97828.78;;;4.03;100.00
69848;BME280;57143;55.940;37.496;2023-12-20T12:29:09;97833.69;;;3.88;100.00
69848;BME280;57143;55.940;37.496;2023-12-20T12:31:37;97845.53;;;3.98;100.00
69848;BME280;57143;55.940;37.496;2023-12-20T12:34:04;97845.53;;;3.98;100.00
69848;BME280;57143;55.940;37.496;2023-12-20T12:36:32;97846.03;;;3.89;100.00
69848;BME280;57143;55.940;37.496;2023-12-20T12:39:02;97816.63;;;3.82;100.00
69848;BME280;57143;55.940;37.496;2023-12-20T12:41:29;97843.34;;;3.89;100.00
69848;BME280;57143;55.940;37.496;2023-12-20T12:43:58;97831.47;;;3.85;100.00
69848;BME280;57143;55.940;37.496;2023-12-20T12:46:26;97849.75;;;3.88;100.00
69848;BME280;57143;55.940;37.496;2023-12-20T12:48:53;97850.59;;;3.88;100.00
69848;BME280;57143;55.940;37.496;2023-12-20T12:51:21;97836.47;;;3.75;100.00
69848;BME280;57143;55.940;37.496;2023-12-20T12:53:48;97840.13;;;3.80;100.00